createdAt,value
2023-02-02T06:31:47.343Z,3.20
2023-02-02T06:34:16.076Z,3.20
2023-02-02T06:36:44.552Z,3.20
2023-02-02T06:39:12.865Z,3.30
2023-02-02T06:41:41.961Z,3.30
2023-02-02T06:44:10.186Z,3.30
2023-02-02T06:46:38.840Z,3.30
2023-02-02T06:49:08.355Z,3.30
2023-02-02T06:51:36.572Z,3.30
2023-02-02T06:54:04.810Z,3.40
2023-02-02T06:56:33.241Z,3.40
2023-02-02T06:59:01.496Z,3.40
2023-02-02T12:42:36.051Z,5.70
2023-02-02T12:52:31.081Z,6.10
2023-02-02T12:55:17.140Z,6.40
2023-02-02T12:58:06.400Z,6.50
2023-02-02T13:00:50.850Z,6.60
2023-02-02T13:03:45.575Z,6.70
2023-02-02T13:06:32.991Z,6.80
2023-02-02T13:27:56.410Z,6.10
2023-02-02T13:30:31.805Z,6.20
2023-02-02T13:40:28.413Z,6.40
2023-02-02T14:08:21.562Z,5.20
2023-02-02T14:11:00.867Z,5.20
2023-02-02T14:14:01.540Z,5.30
2023-02-02T14:23:57.799Z,5.30
2023-02-02T14:26:43.739Z,5.40
2023-02-02T14:29:39.582Z,5.50
2023-02-02T14:39:31.979Z,5.50
2023-02-02T15:44:37.687Z,5.00
2023-02-02T15:47:10.667Z,4.90
2023-02-02T15:49:39.883Z,4.90
2023-02-02T15:52:16.285Z,4.80
2023-02-02T15:54:56.468Z,4.80
2023-02-02T15:57:35.330Z,4.80
2023-02-02T16:00:26.078Z,4.70
2023-02-02T16:03:02.225Z,4.70
2023-02-02T16:05:48.916Z,4.60
2023-02-02T16:08:21.064Z,4.50
2023-02-02T16:11:08.620Z,4.40
2023-02-02T16:14:00.630Z,4.40
2023-02-02T16:16:33.270Z,4.40
2023-02-02T16:19:42.681Z,4.30
2023-02-02T16:22:31.609Z,4.30
2023-02-02T16:25:09.158Z,4.30
2023-02-02T16:27:50.584Z,4.30
2023-02-02T16:30:44.761Z,4.30
2023-02-02T16:33:50.372Z,4.20
